sensor_id;sensor_type;location;lat;lon;timestamp;P1;durP1;ratioP1;P2;durP2;ratioP2
25948;SDS011;13961;51.178;4.448;2023-02-24T00:00:55;16.08;;;3.78;;
25948;SDS011;13961;51.178;4.448;2023-02-24T00:03:21;15.45;;;3.28;;
25948;SDS011;13961;51.178;4.448;2023-02-24T00:05:46;13.23;;;2.78;;
25948;SDS011;13961;51.178;4.448;2023-02-24T00:08:14;12.60;;;2.83;;
25948;SDS011;13961;51.178;4.448;2023-02-24T00:10:40;18.40;;;2.95;;
25948;SDS011;13961;51.178;4.448;2023-02-24T00:13:06;17.38;;;3.03;;
25948;SDS011;13961;51.178;4.448;2023-02-24T00:15:31;13.35;;;3.05;;
25948;SDS011;13961;51.178;4.448;2023-02-24T00:17:57;22.42;;;4.22;;
25948;SDS011;13961;51.178;4.448;2023-02-24T00:20:23;22.60;;;4.50;;
25948;SDS011;13961;51.178;4.448;2023-02-24T00:22:49;18.10;;;3.47;;
25948;SDS011;13961;51.178;4.448;2023-02-24T00:25:15;28.05;;;4.63;;
25948;SDS011;13961;51.178;4.448;2023-02-24T00:27:40;14.32;;;3.05;;
25948;SDS011;13961;51.178;4.448;2023-02-24T00:30:07;19.42;;;3.35;;
25948;SDS011;13961;51.178;4.448;2023-02-24T00:32:35;15.02;;;3.20;;
25948;SDS011;13961;51.178;4.448;2023-02-24T00:35:01;24.23;;;4.13;;
25948;SDS011;13961;51.178;4.448;2023-02-24T00:37:26;16.05;;;3.13;;
25948;SDS011;13961;51.178;4.448;2023-02-24T00:39:53;16.38;;;3.17;;
25948;SDS011;13961;51.178;4.448;2023-02-24T00:42:22;19.85;;;2.97;;
25948;SDS011;13961;51.178;4.448;2023-02-24T00:44:48;18.02;;;3.33;;
25948;SDS011;13961;51.178;4.448;2023-02-24T00:47:14;11.75;;;3.47;;
25948;SDS011;13961;51.178;4.448;2023-02-24T00:49:41;13.98;;;2.83;;
25948;SDS011;13961;51.178;4.448;2023-02-24T00:52:08;9.30;;;3.15;;
25948;SDS011;13961;51.178;4.448;2023-02-24T00:54:37;10.13;;;3.13;;
25948;SDS011;13961;51.178;4.448;2023-02-24T00:57:04;13.85;;;2.88;;
25948;SDS011;13961;51.178;4.448;2023-02-24T00:59:32;13.38;;;3.17;;
25948;SDS011;13961;51.178;4.448;2023-02-24T01:01:58;14.55;;;3.28;;
25948;SDS011;13961;51.178;4.448;2023-02-24T01:04:24;16.27;;;2.90;;
25948;SDS011;13961;51.178;4.448;2023-02-24T01:06:56;10.65;;;2.65;;
25948;SDS011;13961;51.178;4.448;2023-02-24T01:09:26;9.18;;;2.55;;
25948;SDS011;13961;51.178;4.448;2023-02-24T01:11:54;15.88;;;3.45;;
25948;SDS011;13961;51.178;4.448;2023-02-24T01:14:39;18.00;;;3.60;;
25948;SDS011;13961;51.178;4.448;2023-02-24T01:17:05;18.42;;;2.75;;
25948;SDS011;13961;51.178;4.448;2023-02-24T01:19:33;9.77;;;2.28;;
25948;SDS011;13961;51.178;4.448;2023-02-24T01:22:00;13.32;;;2.83;;
25948;SDS011;13961;51.178;4.448;2023-02-24T01:24:33;12.63;;;2.40;;
25948;SDS011;13961;51.178;4.448;2023-02-24T01:27:00;11.20;;;2.50;;
25948;SDS011;13961;51.178;4.448;2023-02-24T01:29:26;13.80;;;2.40;;
25948;SDS011;13961;51.178;4.448;2023-02-24T01:31:52;16.83;;;2.60;;
25948;SDS011;13961;51.178;4.448;2023-02-24T01:34:21;13.20;;;2.47;;
25948;SDS011;13961;51.178;4.448;2023-02-24T01:36:47;8.52;;;2.47;;
25948;SDS011;13961;51.178;4.448;2023-02-24T01:39:14;11.65;;;2.22;;
25948;SDS011;13961;51.178;4.448;2023-02-24T01:41:41;16.50;;;2.63;;
25948;SDS011;13961;51.178;4.448;2023-02-24T01:46:38;14.60;;;2.20;;
25948;SDS011;13961;51.178;4.448;2023-02-24T01:51:49;15.77;;;2.55;;
25948;SDS011;13961;51.178;4.448;2023-02-24T01:54:19;9.43;;;2.08;;
25948;SDS011;13961;51.178;4.448;2023-02-24T01:56:48;14.38;;;1.95;;
25948;SDS011;13961;51.178;4.448;2023-02-24T01:59:16;7.45;;;2.00;;
25948;SDS011;13961;51.178;4.448;2023-02-24T02:01:44;14.27;;;3.13;;
25948;SDS011;13961;51.178;4.448;2023-02-24T02:04:19;12.07;;;2.10;;
25948;SDS011;13961;51.178;4.448;2023-02-24T02:07:07;12.65;;;2.10;;
25948;SDS011;13961;51.178;4.448;2023-02-24T02:09:35;16.42;;;2.25;;
25948;SDS011;13961;51.178;4.448;2023-02-24T02:12:02;8.23;;;2.00;;
25948;SDS011;13961;51.178;4.448;2023-02-24T02:14:28;9.32;;;2.00;;
25948;SDS011;13961;51.178;4.448;2023-02-24T02:25:59;16.48;;;2.35;;
25948;SDS011;13961;51.178;4.448;2023-02-24T02:37:31;10.70;;;2.47;;
25948;SDS011;13961;51.178;4.448;2023-02-24T02:48:19;8.07;;;1.60;;
25948;SDS011;13961;51.178;4.448;2023-02-24T02:51:02;8.43;;;2.17;;
25948;SDS011;13961;51.178;4.448;2023-02-24T02:53:51;8.52;;;1.92;;
25948;SDS011;13961;51.178;4.448;2023-02-24T02:56:26;7.10;;;1.55;;
25948;SDS011;13961;51.178;4.448;2023-02-24T02:58:59;13.68;;;2.03;;
25948;SDS011;13961;51.178;4.448;2023-02-24T03:01:28;11.07;;;1.80;;
25948;SDS011;13961;51.178;4.448;2023-02-24T03:03:58;14.00;;;1.88;;
25948;SDS011;13961;51.178;4.448;2023-02-24T03:06:32;6.55;;;1.48;;
25948;SDS011;13961;51.178;4.448;2023-02-24T03:11:44;10.77;;;1.83;;
25948;SDS011;13961;51.178;4.448;2023-02-24T03:14:14;8.30;;;1.45;;
25948;SDS011;13961;51.178;4.448;2023-02-24T03:16:42;11.88;;;1.65;;
25948;SDS011;13961;51.178;4.448;2023-02-24T03:19:13;7.13;;;1.23;;
25948;SDS011;13961;51.178;4.448;2023-02-24T03:21:45;10.15;;;2.70;;
25948;SDS011;13961;51.178;4.448;2023-02-24T03:24:17;7.07;;;1.13;;
25948;SDS011;13961;51.178;4.448;2023-02-24T03:26:48;7.57;;;1.58;;
25948;SDS011;13961;51.178;4.448;2023-02-24T03:29:21;8.20;;;1.40;;
25948;SDS011;13961;51.178;4.448;2023-02-24T03:34:27;8.75;;;1.67;;
25948;SDS011;13961;51.178;4.448;2023-02-24T03:37:19;12.70;;;1.75;;
25948;SDS011;13961;51.178;4.448;2023-02-24T03:39:52;11.83;;;1.87;;
25948;SDS011;13961;51.178;4.448;2023-02-24T03:42:20;8.88;;;1.42;;
25948;SDS011;13961;51.178;4.448;2023-02-24T03:44:49;7.78;;;1.20;;
25948;SDS011;13961;51.178;4.448;2023-02-24T03:47:16;7.22;;;1.30;;
25948;SDS011;13961;51.178;4.448;2023-02-24T03:49:44;8.18;;;2.00;;
25948;SDS011;13961;51.178;4.448;2023-02-24T03:55:15;7.95;;;1.35;;
25948;SDS011;13961;51.178;4.448;2023-02-24T04:03:58;12.32;;;1.73;;
25948;SDS011;13961;51.178;4.448;2023-02-24T04:06:49;8.32;;;1.63;;
25948;SDS011;13961;51.178;4.448;2023-02-24T04:12:20;9.43;;;1.80;;
25948;SDS011;13961;51.178;4.448;2023-02-24T04:17:41;8.98;;;1.77;;
25948;SDS011;13961;51.178;4.448;2023-02-24T04:20:11;8.35;;;1.60;;
25948;SDS011;13961;51.178;4.448;2023-02-24T04:22:42;9.80;;;2.22;;
25948;SDS011;13961;51.178;4.448;2023-02-24T04:25:13;6.72;;;1.90;;
25948;SDS011;13961;51.178;4.448;2023-02-24T04:27:41;6.90;;;1.80;;
25948;SDS011;13961;51.178;4.448;2023-02-24T04:30:09;7.05;;;1.77;;
25948;SDS011;13961;51.178;4.448;2023-02-24T04:32:36;7.88;;;1.80;;
25948;SDS011;13961;51.178;4.448;2023-02-24T04:35:03;8.90;;;1.80;;
25948;SDS011;13961;51.178;4.448;2023-02-24T04:37:31;5.22;;;1.67;;
25948;SDS011;13961;51.178;4.448;2023-02-24T04:39:59;9.23;;;1.50;;
25948;SDS011;13961;51.178;4.448;2023-02-24T04:42:26;10.13;;;1.55;;
25948;SDS011;13961;51.178;4.448;2023-02-24T04:44:52;7.30;;;1.60;;
25948;SDS011;13961;51.178;4.448;2023-02-24T04:47:18;11.32;;;1.73;;
25948;SDS011;13961;51.178;4.448;2023-02-24T04:49:44;10.98;;;1.48;;
25948;SDS011;13961;51.178;4.448;2023-02-24T04:52:10;4.53;;;1.30;;
25948;SDS011;13961;51.178;4.448;2023-02-24T04:54:39;5.80;;;1.10;;
25948;SDS011;13961;51.178;4.448;2023-02-24T04:57:04;4.63;;;0.90;;
25948;SDS011;13961;51.178;4.448;2023-02-24T04:59:31;10.63;;;1.75;;
25948;SDS011;13961;51.178;4.448;2023-02-24T05:01:57;9.77;;;1.25;;
25948;SDS011;13961;51.178;4.448;2023-02-24T05:04:26;4.85;;;1.10;;
25948;SDS011;13961;51.178;4.448;2023-02-24T05:06:54;5.53;;;1.42;;
25948;SDS011;13961;51.178;4.448;2023-02-24T05:09:21;7.82;;;1.48;;
25948;SDS011;13961;51.178;4.448;2023-02-24T05:11:48;6.38;;;1.58;;
25948;SDS011;13961;51.178;4.448;2023-02-24T05:14:16;7.65;;;1.60;;
25948;SDS011;13961;51.178;4.448;2023-02-24T05:16:45;9.88;;;1.35;;
25948;SDS011;13961;51.178;4.448;2023-02-24T05:19:14;9.90;;;1.50;;
25948;SDS011;13961;51.178;4.448;2023-02-24T05:21:59;4.85;;;1.40;;
25948;SDS011;13961;51.178;4.448;2023-02-24T05:24:31;9.38;;;1.70;;
25948;SDS011;13961;51.178;4.448;2023-02-24T05:26:57;12.30;;;1.90;;
25948;SDS011;13961;51.178;4.448;2023-02-24T05:29:27;17.73;;;1.98;;
25948;SDS011;13961;51.178;4.448;2023-02-24T05:31:55;6.95;;;1.40;;
25948;SDS011;13961;51.178;4.448;2023-02-24T05:34:28;10.15;;;1.60;;
25948;SDS011;13961;51.178;4.448;2023-02-24T05:36:56;10.40;;;1.50;;
25948;SDS011;13961;51.178;4.448;2023-02-24T05:39:23;10.98;;;1.85;;
25948;SDS011;13961;51.178;4.448;2023-02-24T05:41:50;6.00;;;1.40;;
25948;SDS011;13961;51.178;4.448;2023-02-24T05:44:19;8.70;;;1.55;;
25948;SDS011;13961;51.178;4.448;2023-02-24T05:46:50;8.95;;;1.92;;
25948;SDS011;13961;51.178;4.448;2023-02-24T05:49:22;7.68;;;1.27;;
25948;SDS011;13961;51.178;4.448;2023-02-24T05:51:52;9.65;;;1.40;;
25948;SDS011;13961;51.178;4.448;2023-02-24T05:54:27;13.88;;;1.80;;
25948;SDS011;13961;51.178;4.448;2023-02-24T05:56:58;9.73;;;1.90;;
25948;SDS011;13961;51.178;4.448;2023-02-24T05:59:36;4.85;;;1.40;;
25948;SDS011;13961;51.178;4.448;2023-02-24T06:02:04;8.18;;;1.60;;
25948;SDS011;13961;51.178;4.448;2023-02-24T06:04:33;5.10;;;1.75;;
25948;SDS011;13961;51.178;4.448;2023-02-24T06:07:06;6.32;;;1.50;;
25948;SDS011;13961;51.178;4.448;2023-02-24T06:09:49;10.63;;;1.80;;
25948;SDS011;13961;51.178;4.448;2023-02-24T06:12:24;5.78;;;1.48;;
25948;SDS011;13961;51.178;4.448;2023-02-24T06:14:55;7.70;;;1.60;;
25948;SDS011;13961;51.178;4.448;2023-02-24T06:17:24;5.38;;;1.88;;
25948;SDS011;13961;51.178;4.448;2023-02-24T06:19:51;14.07;;;2.08;;
25948;SDS011;13961;51.178;4.448;2023-02-24T06:22:20;6.45;;;1.60;;
25948;SDS011;13961;51.178;4.448;2023-02-24T06:24:47;10.77;;;1.55;;
25948;SDS011;13961;51.178;4.448;2023-02-24T06:27:14;5.15;;;1.33;;
25948;SDS011;13961;51.178;4.448;2023-02-24T06:29:44;9.57;;;1.83;;
25948;SDS011;13961;51.178;4.448;2023-02-24T06:32:14;12.60;;;1.80;;
25948;SDS011;13961;51.178;4.448;2023-02-24T06:34:41;7.63;;;1.42;;
25948;SDS011;13961;51.178;4.448;2023-02-24T06:37:07;4.18;;;1.52;;
25948;SDS011;13961;51.178;4.448;2023-02-24T06:39:34;5.88;;;1.70;;
25948;SDS011;13961;51.178;4.448;2023-02-24T06:42:00;6.85;;;2.22;;
25948;SDS011;13961;51.178;4.448;2023-02-24T06:44:32;9.52;;;2.03;;
25948;SDS011;13961;51.178;4.448;2023-02-24T06:46:59;10.77;;;2.13;;
25948;SDS011;13961;51.178;4.448;2023-02-24T06:49:25;9.98;;;2.08;;
25948;SDS011;13961;51.178;4.448;2023-02-24T06:51:52;16.13;;;2.50;;
25948;SDS011;13961;51.178;4.448;2023-02-24T06:54:19;12.13;;;2.20;;
25948;SDS011;13961;51.178;4.448;2023-02-24T06:56:48;9.88;;;2.10;;
25948;SDS011;13961;51.178;4.448;2023-02-24T06:59:14;6.60;;;2.00;;
25948;SDS011;13961;51.178;4.448;2023-02-24T07:01:46;9.10;;;2.30;;
25948;SDS011;13961;51.178;4.448;2023-02-24T07:04:12;15.43;;;2.53;;
25948;SDS011;13961;51.178;4.448;2023-02-24T07:06:40;10.23;;;2.75;;
25948;SDS011;13961;51.178;4.448;2023-02-24T07:09:09;13.68;;;3.00;;
25948;SDS011;13961;51.178;4.448;2023-02-24T07:11:37;6.97;;;2.75;;
25948;SDS011;13961;51.178;4.448;2023-02-24T07:14:08;9.07;;;2.38;;
25948;SDS011;13961;51.178;4.448;2023-02-24T07:16:35;9.95;;;2.95;;
25948;SDS011;13961;51.178;4.448;2023-02-24T07:19:05;13.85;;;2.70;;
25948;SDS011;13961;51.178;4.448;2023-02-24T07:21:35;12.93;;;2.35;;
25948;SDS011;13961;51.178;4.448;2023-02-24T07:24:10;7.90;;;2.40;;
25948;SDS011;13961;51.178;4.448;2023-02-24T07:26:53;7.97;;;2.88;;
25948;SDS011;13961;51.178;4.448;2023-02-24T07:29:20;5.93;;;1.98;;
25948;SDS011;13961;51.178;4.448;2023-02-24T07:31:47;8.50;;;2.38;;
25948;SDS011;13961;51.178;4.448;2023-02-24T07:34:13;12.88;;;2.50;;
25948;SDS011;13961;51.178;4.448;2023-02-24T07:36:39;8.70;;;3.00;;
25948;SDS011;13961;51.178;4.448;2023-02-24T07:39:15;12.63;;;2.28;;
25948;SDS011;13961;51.178;4.448;2023-02-24T07:41:41;13.30;;;2.88;;
25948;SDS011;13961;51.178;4.448;2023-02-24T07:44:13;14.53;;;2.50;;
25948;SDS011;13961;51.178;4.448;2023-02-24T07:46:40;9.88;;;2.65;;
25948;SDS011;13961;51.178;4.448;2023-02-24T07:49:07;7.53;;;2.30;;
25948;SDS011;13961;51.178;4.448;2023-02-24T07:51:38;6.40;;;2.30;;
25948;SDS011;13961;51.178;4.448;2023-02-24T07:54:04;13.45;;;2.67;;
25948;SDS011;13961;51.178;4.448;2023-02-24T07:56:32;14.52;;;2.60;;
25948;SDS011;13961;51.178;4.448;2023-02-24T08:01:26;13.75;;;2.53;;
25948;SDS011;13961;51.178;4.448;2023-02-24T08:03:55;8.15;;;2.25;;
25948;SDS011;13961;51.178;4.448;2023-02-24T08:06:45;12.93;;;2.80;;
25948;SDS011;13961;51.178;4.448;2023-02-24T08:09:18;10.55;;;2.53;;
25948;SDS011;13961;51.178;4.448;2023-02-24T08:14:11;6.53;;;2.40;;
25948;SDS011;13961;51.178;4.448;2023-02-24T08:16:39;10.65;;;2.85;;
25948;SDS011;13961;51.178;4.448;2023-02-24T08:19:09;9.02;;;2.45;;
25948;SDS011;13961;51.178;4.448;2023-02-24T08:21:40;8.02;;;2.22;;
25948;SDS011;13961;51.178;4.448;2023-02-24T08:24:15;10.85;;;2.85;;
25948;SDS011;13961;51.178;4.448;2023-02-24T08:26:46;18.15;;;3.88;;
25948;SDS011;13961;51.178;4.448;2023-02-24T08:29:32;18.17;;;3.20;;
25948;SDS011;13961;51.178;4.448;2023-02-24T08:32:32;10.75;;;2.67;;
25948;SDS011;13961;51.178;4.448;2023-02-24T08:35:02;15.38;;;2.25;;
25948;SDS011;13961;51.178;4.448;2023-02-24T08:37:30;8.05;;;1.95;;
25948;SDS011;13961;51.178;4.448;2023-02-24T08:40:13;9.57;;;2.25;;
25948;SDS011;13961;51.178;4.448;2023-02-24T08:43:12;8.30;;;2.25;;
25948;SDS011;13961;51.178;4.448;2023-02-24T08:45:45;15.43;;;1.52;;
25948;SDS011;13961;51.178;4.448;2023-02-24T08:48:15;10.35;;;2.30;;
25948;SDS011;13961;51.178;4.448;2023-02-24T08:51:02;10.52;;;2.13;;
25948;SDS011;13961;51.178;4.448;2023-02-24T08:53:28;5.88;;;1.83;;
25948;SDS011;13961;51.178;4.448;2023-02-24T08:55:56;10.82;;;1.80;;
25948;SDS011;13961;51.178;4.448;2023-02-24T08:58:24;6.32;;;1.90;;
25948;SDS011;13961;51.178;4.448;2023-02-24T09:00:54;10.75;;;2.20;;
25948;SDS011;13961;51.178;4.448;2023-02-24T09:03:22;7.95;;;2.33;;
25948;SDS011;13961;51.178;4.448;2023-02-24T09:08:28;12.48;;;2.53;;
25948;SDS011;13961;51.178;4.448;2023-02-24T09:11:03;9.80;;;2.42;;
25948;SDS011;13961;51.178;4.448;2023-02-24T09:13:37;9.35;;;2.40;;
25948;SDS011;13961;51.178;4.448;2023-02-24T09:16:16;6.63;;;2.17;;
25948;SDS011;13961;51.178;4.448;2023-02-24T09:18:43;13.73;;;2.53;;
25948;SDS011;13961;51.178;4.448;2023-02-24T09:21:11;7.43;;;2.20;;
25948;SDS011;13961;51.178;4.448;2023-02-24T09:24:00;7.82;;;2.22;;
25948;SDS011;13961;51.178;4.448;2023-02-24T09:26:34;9.38;;;2.75;;
25948;SDS011;13961;51.178;4.448;2023-02-24T09:29:12;9.38;;;2.08;;
25948;SDS011;13961;51.178;4.448;2023-02-24T09:31:57;9.73;;;2.30;;
25948;SDS011;13961;51.178;4.448;2023-02-24T09:34:37;7.65;;;2.53;;
25948;SDS011;13961;51.178;4.448;2023-02-24T09:37:08;11.70;;;2.60;;
25948;SDS011;13961;51.178;4.448;2023-02-24T09:39:50;9.38;;;2.38;;
25948;SDS011;13961;51.178;4.448;2023-02-24T09:42:20;7.63;;;2.13;;
25948;SDS011;13961;51.178;4.448;2023-02-24T09:44:52;12.40;;;2.63;;
25948;SDS011;13961;51.178;4.448;2023-02-24T09:47:22;7.78;;;2.42;;
25948;SDS011;13961;51.178;4.448;2023-02-24T09:52:53;10.13;;;2.50;;
25948;SDS011;13961;51.178;4.448;2023-02-24T10:00:40;10.35;;;2.72;;
25948;SDS011;13961;51.178;4.448;2023-02-24T10:03:32;7.57;;;2.33;;
25948;SDS011;13961;51.178;4.448;2023-02-24T10:09:31;11.13;;;2.70;;
25948;SDS011;13961;51.178;4.448;2023-02-24T10:11:50;8.55;;;2.45;;
25948;SDS011;13961;51.178;4.448;2023-02-24T10:14:40;8.05;;;2.08;;
25948;SDS011;13961;51.178;4.448;2023-02-24T10:17:41;11.45;;;2.28;;
25948;SDS011;13961;51.178;4.448;2023-02-24T10:20:10;11.70;;;2.60;;
25948;SDS011;13961;51.178;4.448;2023-02-24T10:23:06;8.77;;;2.40;;
25948;SDS011;13961;51.178;4.448;2023-02-24T10:25:45;9.15;;;2.47;;
25948;SDS011;13961;51.178;4.448;2023-02-24T10:28:24;6.20;;;1.95;;
25948;SDS011;13961;51.178;4.448;2023-02-24T10:31:10;13.23;;;2.60;;
25948;SDS011;13961;51.178;4.448;2023-02-24T10:33:51;7.80;;;2.30;;
25948;SDS011;13961;51.178;4.448;2023-02-24T10:36:44;10.25;;;2.58;;
25948;SDS011;13961;51.178;4.448;2023-02-24T10:39:21;8.30;;;2.58;;
25948;SDS011;13961;51.178;4.448;2023-02-24T10:41:52;10.63;;;2.60;;
25948;SDS011;13961;51.178;4.448;2023-02-24T10:44:40;7.15;;;2.08;;
25948;SDS011;13961;51.178;4.448;2023-02-24T10:47:16;6.90;;;2.20;;
25948;SDS011;13961;51.178;4.448;2023-02-24T10:49:56;8.95;;;2.65;;
25948;SDS011;13961;51.178;4.448;2023-02-24T10:52:24;8.68;;;2.05;;
25948;SDS011;13961;51.178;4.448;2023-02-24T10:57:59;7.18;;;2.13;;
25948;SDS011;13961;51.178;4.448;2023-02-24T11:00:43;8.77;;;2.60;;
25948;SDS011;13961;51.178;4.448;2023-02-24T11:03:26;8.77;;;2.95;;
25948;SDS011;13961;51.178;4.448;2023-02-24T11:06:17;5.68;;;2.35;;
25948;SDS011;13961;51.178;4.448;2023-02-24T11:09:19;8.25;;;2.47;;
25948;SDS011;13961;51.178;4.448;2023-02-24T11:11:52;8.20;;;2.75;;
25948;SDS011;13961;51.178;4.448;2023-02-24T11:14:45;6.65;;;2.58;;
25948;SDS011;13961;51.178;4.448;2023-02-24T11:17:33;7.55;;;2.50;;
25948;SDS011;13961;51.178;4.448;2023-02-24T11:20:05;8.77;;;2.17;;
25948;SDS011;13961;51.178;4.448;2023-02-24T11:22:40;9.43;;;2.22;;
25948;SDS011;13961;51.178;4.448;2023-02-24T11:25:21;5.80;;;2.17;;
25948;SDS011;13961;51.178;4.448;2023-02-24T11:27:58;7.70;;;2.83;;
25948;SDS011;13961;51.178;4.448;2023-02-24T11:33:16;7.30;;;2.67;;
25948;SDS011;13961;51.178;4.448;2023-02-24T11:38:44;11.68;;;3.15;;
25948;SDS011;13961;51.178;4.448;2023-02-24T11:41:24;8.57;;;2.70;;
25948;SDS011;13961;51.178;4.448;2023-02-24T11:44:07;6.65;;;2.72;;
25948;SDS011;13961;51.178;4.448;2023-02-24T11:46:43;10.00;;;3.05;;
25948;SDS011;13961;51.178;4.448;2023-02-24T11:49:47;13.38;;;2.70;;
25948;SDS011;13961;51.178;4.448;2023-02-24T11:52:09;8.27;;;2.53;;
25948;SDS011;13961;51.178;4.448;2023-02-24T11:54:44;8.35;;;2.55;;
25948;SDS011;13961;51.178;4.448;2023-02-24T11:57:17;6.63;;;2.78;;
25948;SDS011;13961;51.178;4.448;2023-02-24T12:05:23;7.80;;;2.53;;
25948;SDS011;13961;51.178;4.448;2023-02-24T12:10:42;13.30;;;3.60;;
25948;SDS011;13961;51.178;4.448;2023-02-24T12:15:41;10.63;;;3.42;;
25948;SDS011;13961;51.178;4.448;2023-02-24T12:20:48;10.15;;;3.35;;
25948;SDS011;13961;51.178;4.448;2023-02-24T12:23:28;12.95;;;3.05;;
25948;SDS011;13961;51.178;4.448;2023-02-24T12:28:48;13.23;;;3.92;;
25948;SDS011;13961;51.178;4.448;2023-02-24T12:34:22;10.57;;;3.08;;
25948;SDS011;13961;51.178;4.448;2023-02-24T12:36:58;10.02;;;3.15;;
25948;SDS011;13961;51.178;4.448;2023-02-24T12:48:08;8.25;;;3.25;;
25948;SDS011;13961;51.178;4.448;2023-02-24T12:53:43;7.80;;;3.10;;
25948;SDS011;13961;51.178;4.448;2023-02-24T12:58:50;7.47;;;3.17;;
25948;SDS011;13961;51.178;4.448;2023-02-24T13:01:25;7.93;;;3.63;;
25948;SDS011;13961;51.178;4.448;2023-02-24T13:04:19;13.50;;;4.05;;
25948;SDS011;13961;51.178;4.448;2023-02-24T13:07:06;11.43;;;3.60;;
25948;SDS011;13961;51.178;4.448;2023-02-24T13:15:21;10.85;;;3.83;;
25948;SDS011;13961;51.178;4.448;2023-02-24T13:17:49;11.45;;;4.13;;
25948;SDS011;13961;51.178;4.448;2023-02-24T13:20:30;13.10;;;5.00;;
25948;SDS011;13961;51.178;4.448;2023-02-24T13:23:03;10.38;;;4.50;;
25948;SDS011;13961;51.178;4.448;2023-02-24T13:25:51;11.23;;;5.25;;
25948;SDS011;13961;51.178;4.448;2023-02-24T13:28:22;19.08;;;7.65;;
25948;SDS011;13961;51.178;4.448;2023-02-24T13:30:56;19.63;;;9.75;;
25948;SDS011;13961;51.178;4.448;2023-02-24T13:33:27;15.70;;;8.73;;
25948;SDS011;13961;51.178;4.448;2023-02-24T13:36:09;18.77;;;7.65;;
25948;SDS011;13961;51.178;4.448;2023-02-24T13:41:18;13.45;;;7.30;;
25948;SDS011;13961;51.178;4.448;2023-02-24T13:46:39;19.60;;;10.30;;
25948;SDS011;13961;51.178;4.448;2023-02-24T13:52:06;21.90;;;12.25;;
25948;SDS011;13961;51.178;4.448;2023-02-24T13:57:46;19.13;;;9.13;;
25948;SDS011;13961;51.178;4.448;2023-02-24T14:00:39;19.95;;;11.10;;
25948;SDS011;13961;51.178;4.448;2023-02-24T14:03:23;19.75;;;11.27;;
25948;SDS011;13961;51.178;4.448;2023-02-24T14:05:51;27.40;;;13.65;;
25948;SDS011;13961;51.178;4.448;2023-02-24T14:08:19;28.88;;;15.23;;
25948;SDS011;13961;51.178;4.448;2023-02-24T14:10:51;24.73;;;13.45;;
25948;SDS011;13961;51.178;4.448;2023-02-24T14:13:22;22.77;;;13.20;;
25948;SDS011;13961;51.178;4.448;2023-02-24T14:15:52;21.58;;;11.88;;
25948;SDS011;13961;51.178;4.448;2023-02-24T14:18:19;16.02;;;10.63;;
25948;SDS011;13961;51.178;4.448;2023-02-24T14:20:47;14.23;;;9.15;;
25948;SDS011;13961;51.178;4.448;2023-02-24T14:23:34;16.25;;;8.60;;
25948;SDS011;13961;51.178;4.448;2023-02-24T14:26:00;12.40;;;7.75;;
25948;SDS011;13961;51.178;4.448;2023-02-24T14:28:30;13.77;;;7.30;;
25948;SDS011;13961;51.178;4.448;2023-02-24T14:30:59;14.93;;;7.93;;
25948;SDS011;13961;51.178;4.448;2023-02-24T14:33:35;11.73;;;7.70;;
25948;SDS011;13961;51.178;4.448;2023-02-24T14:36:02;10.75;;;6.35;;
25948;SDS011;13961;51.178;4.448;2023-02-24T14:38:34;12.00;;;7.25;;
25948;SDS011;13961;51.178;4.448;2023-02-24T14:41:06;7.57;;;3.58;;
25948;SDS011;13961;51.178;4.448;2023-02-24T14:43:41;11.55;;;7.30;;
25948;SDS011;13961;51.178;4.448;2023-02-24T14:46:07;16.08;;;7.38;;
25948;SDS011;13961;51.178;4.448;2023-02-24T14:48:33;11.57;;;6.47;;
25948;SDS011;13961;51.178;4.448;2023-02-24T14:51:00;15.60;;;7.35;;
25948;SDS011;13961;51.178;4.448;2023-02-24T14:53:33;14.68;;;7.90;;
25948;SDS011;13961;51.178;4.448;2023-02-24T14:56:07;15.35;;;8.02;;
25948;SDS011;13961;51.178;4.448;2023-02-24T14:58:40;12.05;;;7.32;;
25948;SDS011;13961;51.178;4.448;2023-02-24T15:03:53;16.15;;;7.88;;
25948;SDS011;13961;51.178;4.448;2023-02-24T15:06:22;14.93;;;7.65;;
25948;SDS011;13961;51.178;4.448;2023-02-24T15:08:57;14.80;;;8.40;;
25948;SDS011;13961;51.178;4.448;2023-02-24T15:11:27;16.08;;;7.80;;
25948;SDS011;13961;51.178;4.448;2023-02-24T15:13:58;21.42;;;8.25;;
25948;SDS011;13961;51.178;4.448;2023-02-24T15:16:28;13.95;;;8.40;;
25948;SDS011;13961;51.178;4.448;2023-02-24T15:18:57;21.77;;;9.27;;
25948;SDS011;13961;51.178;4.448;2023-02-24T15:21:28;19.90;;;8.63;;
25948;SDS011;13961;51.178;4.448;2023-02-24T15:23:59;20.05;;;9.05;;
25948;SDS011;13961;51.178;4.448;2023-02-24T15:26:33;16.95;;;7.47;;
25948;SDS011;13961;51.178;4.448;2023-02-24T15:29:00;16.10;;;8.43;;
25948;SDS011;13961;51.178;4.448;2023-02-24T15:31:36;20.17;;;9.02;;
25948;SDS011;13961;51.178;4.448;2023-02-24T15:34:01;22.88;;;9.25;;
25948;SDS011;13961;51.178;4.448;2023-02-24T15:36:31;17.67;;;7.78;;
25948;SDS011;13961;51.178;4.448;2023-02-24T15:39:00;20.45;;;6.78;;
25948;SDS011;13961;51.178;4.448;2023-02-24T15:41:39;23.88;;;7.80;;
25948;SDS011;13961;51.178;4.448;2023-02-24T15:46:53;17.85;;;7.03;;
25948;SDS011;13961;51.178;4.448;2023-02-24T15:49:19;21.20;;;7.03;;
25948;SDS011;13961;51.178;4.448;2023-02-24T15:51:46;12.45;;;6.32;;
25948;SDS011;13961;51.178;4.448;2023-02-24T15:54:14;12.60;;;6.32;;
25948;SDS011;13961;51.178;4.448;2023-02-24T15:56:44;17.42;;;7.13;;
25948;SDS011;13961;51.178;4.448;2023-02-24T15:59:15;20.33;;;6.47;;
25948;SDS011;13961;51.178;4.448;2023-02-24T16:01:42;25.60;;;5.88;;
25948;SDS011;13961;51.178;4.448;2023-02-24T16:04:08;18.73;;;5.45;;
25948;SDS011;13961;51.178;4.448;2023-02-24T16:06:34;17.40;;;3.63;;
25948;SDS011;13961;51.178;4.448;2023-02-24T16:09:11;13.35;;;3.08;;
25948;SDS011;13961;51.178;4.448;2023-02-24T16:11:40;13.73;;;1.90;;
25948;SDS011;13961;51.178;4.448;2023-02-24T16:14:11;5.03;;;1.92;;
25948;SDS011;13961;51.178;4.448;2023-02-24T16:16:40;8.57;;;1.40;;
25948;SDS011;13961;51.178;4.448;2023-02-24T16:19:06;12.50;;;2.08;;
25948;SDS011;13961;51.178;4.448;2023-02-24T16:21:34;10.88;;;2.25;;
25948;SDS011;13961;51.178;4.448;2023-02-24T16:24:00;8.63;;;1.50;;
25948;SDS011;13961;51.178;4.448;2023-02-24T16:26:25;7.68;;;1.50;;
25948;SDS011;13961;51.178;4.448;2023-02-24T16:28:55;13.60;;;1.67;;
25948;SDS011;13961;51.178;4.448;2023-02-24T16:31:22;9.90;;;1.55;;
25948;SDS011;13961;51.178;4.448;2023-02-24T16:33:48;11.55;;;1.70;;
25948;SDS011;13961;51.178;4.448;2023-02-24T16:36:14;7.28;;;1.50;;
25948;SDS011;13961;51.178;4.448;2023-02-24T16:38:41;9.32;;;1.33;;
25948;SDS011;13961;51.178;4.448;2023-02-24T16:41:13;8.10;;;1.63;;
25948;SDS011;13961;51.178;4.448;2023-02-24T16:43:39;10.27;;;1.27;;
25948;SDS011;13961;51.178;4.448;2023-02-24T16:46:06;12.70;;;2.30;;
25948;SDS011;13961;51.178;4.448;2023-02-24T16:48:37;18.67;;;1.93;;
25948;SDS011;13961;51.178;4.448;2023-02-24T16:51:05;9.98;;;1.63;;
25948;SDS011;13961;51.178;4.448;2023-02-24T16:53:32;11.00;;;1.40;;
25948;SDS011;13961;51.178;4.448;2023-02-24T16:55:58;7.53;;;1.27;;
25948;SDS011;13961;51.178;4.448;2023-02-24T16:58:24;7.72;;;1.30;;
25948;SDS011;13961;51.178;4.448;2023-02-24T17:00:53;6.07;;;1.00;;
25948;SDS011;13961;51.178;4.448;2023-02-24T17:03:24;6.28;;;1.30;;
25948;SDS011;13961;51.178;4.448;2023-02-24T17:05:54;8.00;;;1.30;;
25948;SDS011;13961;51.178;4.448;2023-02-24T17:08:19;7.75;;;1.10;;
25948;SDS011;13961;51.178;4.448;2023-02-24T17:10:45;11.82;;;1.15;;
25948;SDS011;13961;51.178;4.448;2023-02-24T17:13:14;8.07;;;0.68;;
25948;SDS011;13961;51.178;4.448;2023-02-24T17:15:41;5.95;;;1.35;;
25948;SDS011;13961;51.178;4.448;2023-02-24T17:18:07;4.82;;;1.20;;
25948;SDS011;13961;51.178;4.448;2023-02-24T17:20:34;7.07;;;1.00;;
25948;SDS011;13961;51.178;4.448;2023-02-24T17:23:00;7.55;;;1.33;;